createdAt,value
2019-02-03T00:02:16.561Z,154.13
2019-02-03T00:04:47.066Z,151.13
2019-02-03T00:07:17.683Z,151.13
2019-02-03T00:09:48.131Z,150.13
2019-02-03T00:12:18.617Z,155.97
2019-02-03T00:14:49.059Z,148.20
2019-02-03T00:17:19.699Z,143.70
2019-02-03T00:19:50.143Z,147.63
2019-02-03T00:22:20.599Z,146.47
2019-02-03T00:24:51.071Z,140.70
2019-02-03T00:27:21.527Z,152.23
2019-02-03T00:29:52.978Z,154.20
2019-02-03T00:32:23.423Z,161.13
2019-02-03T00:34:54.195Z,167.50
2019-02-03T00:37:24.676Z,166.03
2019-02-03T00:39:55.170Z,161.77
2019-02-03T00:42:25.689Z,157.23
2019-02-03T00:44:56.239Z,156.30
2019-02-03T00:47:26.688Z,164.97
2019-02-03T00:49:57.441Z,161.47
2019-02-03T00:52:27.892Z,162.07
2019-02-03T00:54:58.390Z,162.87
2019-02-03T00:57:28.843Z,150.57
2019-02-03T00:59:59.623Z,160.93
2019-02-03T01:02:30.399Z,162.47
2019-02-03T01:05:01.115Z,155.83
2019-02-03T01:07:31.610Z,158.23
2019-02-03T01:10:02.060Z,149.80
2019-02-03T01:12:33.531Z,153.77
2019-02-03T01:15:04.910Z,159.50
2019-02-03T01:17:35.354Z,155.77
2019-02-03T01:20:08.006Z,162.90
2019-02-03T01:22:38.525Z,150.27
2019-02-03T01:25:10.891Z,149.83
2019-02-03T01:27:41.443Z,159.07
2019-02-03T01:30:15.155Z,148.33
2019-02-03T01:32:45.643Z,147.17
2019-02-03T01:35:16.481Z,144.57
2019-02-03T01:37:47.135Z,151.43
2019-02-03T01:40:18.484Z,145.70
2019-02-03T01:42:49.699Z,135.27
2019-02-03T01:45:21.057Z,140.17
2019-02-03T01:47:51.509Z,137.67
2019-02-03T01:50:21.952Z,129.60
2019-02-03T01:52:52.769Z,138.13
2019-02-03T01:55:24.725Z,139.67
2019-02-03T01:57:55.595Z,136.93
2019-02-03T02:00:27.982Z,134.33
2019-02-03T02:02:59.008Z,140.27
2019-02-03T02:05:29.486Z,144.13
2019-02-03T02:07:59.934Z,148.13
2019-02-03T02:10:30.546Z,132.33
2019-02-03T02:13:01.014Z,138.97
2019-02-03T02:15:32.263Z,136.10
2019-02-03T02:18:02.735Z,134.20
2019-02-03T02:20:33.183Z,141.97
2019-02-03T02:23:03.749Z,142.13
2019-02-03T02:25:35.162Z,137.97
2019-02-03T02:28:06.264Z,142.77
2019-02-03T02:30:36.755Z,137.40
2019-02-03T02:33:07.193Z,142.07
2019-02-03T02:35:37.687Z,135.93
2019-02-03T02:38:08.477Z,129.77
2019-02-03T02:40:39.327Z,139.40
2019-02-03T02:43:10.076Z,130.37
2019-02-03T02:45:40.832Z,134.63
2019-02-03T02:48:11.486Z,141.63
2019-02-03T02:50:43.962Z,144.87
2019-02-03T02:53:14.781Z,132.47
2019-02-03T02:55:45.625Z,136.83
2019-02-03T02:58:16.363Z,133.70
2019-02-03T03:00:46.880Z,130.27
2019-02-03T03:03:17.328Z,144.77
2019-02-03T03:05:48.534Z,128.07
2019-02-03T03:08:19.883Z,141.83
2019-02-03T03:10:50.435Z,136.67
2019-02-03T03:13:20.911Z,144.87
2019-02-03T03:15:51.354Z,133.90
2019-02-03T03:18:22.567Z,142.77
2019-02-03T03:20:53.909Z,151.90
2019-02-03T03:23:24.363Z,151.87
2019-02-03T03:25:55.775Z,141.70
2019-02-03T03:28:26.228Z,136.73
2019-02-03T03:30:56.908Z,142.23
2019-02-03T03:33:27.362Z,142.93
2019-02-03T03:35:57.807Z,145.80
2019-02-03T03:38:32.314Z,137.00
2019-02-03T03:41:00.892Z,133.97
2019-02-03T03:43:32.316Z,134.63
2019-02-03T03:46:06.332Z,126.20
2019-02-03T03:48:35.510Z,129.93
2019-02-03T03:51:06.575Z,138.57
2019-02-03T03:53:37.019Z,130.47
2019-02-03T03:56:08.283Z,135.63
2019-02-03T03:58:38.730Z,128.83
2019-02-03T04:01:09.337Z,124.63
2019-02-03T04:03:39.854Z,124.90
2019-02-03T04:06:10.306Z,132.20
2019-02-03T04:08:45.326Z,131.80
2019-02-03T04:11:13.442Z,119.53
2019-02-03T04:13:43.884Z,122.23
2019-02-03T04:16:15.429Z,125.00
2019-02-03T04:18:45.869Z,125.23
2019-02-03T04:21:16.364Z,120.23
2019-02-03T04:23:47.082Z,124.17
2019-02-03T04:26:18.453Z,120.97
2019-02-03T04:28:48.927Z,126.47
2019-02-03T04:31:19.372Z,122.57
2019-02-03T04:33:49.859Z,121.00
2019-02-03T04:36:20.460Z,127.40
2019-02-03T04:38:58.413Z,132.33
2019-02-03T04:41:23.390Z,130.80
2019-02-03T04:43:53.930Z,126.47
2019-02-03T04:46:24.735Z,129.60
2019-02-03T04:48:55.242Z,127.40
2019-02-03T04:51:25.690Z,135.30
2019-02-03T04:53:56.562Z,131.40
2019-02-03T04:56:27.000Z,128.67
2019-02-03T04:58:57.875Z,126.87
2019-02-03T05:01:29.023Z,129.63
2019-02-03T05:03:59.611Z,127.87
2019-02-03T05:06:30.128Z,128.77
2019-02-03T05:09:10.794Z,126.17
2019-02-03T05:11:33.928Z,127.27
2019-02-03T05:14:04.575Z,126.60
2019-02-03T05:16:35.038Z,121.47
2019-02-03T05:19:06.305Z,124.03
2019-02-03T05:21:37.478Z,125.47
2019-02-03T05:24:07.954Z,122.30
2019-02-03T05:26:38.389Z,128.33
2019-02-03T05:29:08.954Z,125.87
2019-02-03T05:31:39.864Z,121.77
2019-02-03T05:34:11.110Z,120.20
2019-02-03T05:36:41.578Z,127.50
2019-02-03T05:39:23.872Z,117.47
2019-02-03T05:41:44.217Z,115.50
2019-02-03T05:44:14.662Z,113.83
2019-02-03T05:46:45.483Z,102.80
2019-02-03T05:49:16.322Z,106.87
2019-02-03T05:51:46.766Z,110.63
2019-02-03T05:54:17.559Z,106.27
2019-02-03T05:56:47.998Z,101.27
2019-02-03T05:59:18.626Z,97.87
2019-02-03T06:01:49.328Z,103.13
2019-02-03T06:04:20.162Z,101.63
2019-02-03T06:06:50.751Z,91.60
2019-02-03T06:09:21.185Z,96.97
2019-02-03T06:11:52.366Z,92.83
2019-02-03T06:14:22.834Z,95.43
2019-02-03T06:16:53.633Z,91.87
2019-02-03T06:19:24.132Z,97.33
2019-02-03T06:21:54.567Z,88.43
2019-02-03T06:24:25.958Z,90.23
2019-02-03T06:26:56.439Z,88.30
2019-02-03T06:29:26.874Z,89.73
2019-02-03T06:31:57.341Z,84.67
2019-02-03T06:34:28.106Z,84.57
2019-02-03T06:36:59.147Z,86.57
2019-02-03T06:39:29.957Z,86.87
2019-02-03T06:42:00.845Z,86.47
2019-02-03T06:44:31.290Z,79.10
2019-02-03T06:47:07.030Z,84.50
2019-02-03T06:49:39.478Z,82.30
2019-02-03T06:52:09.897Z,88.97
2019-02-03T06:54:40.366Z,88.70
2019-02-03T06:57:11.159Z,88.37
2019-02-03T06:59:50.378Z,86.43
2019-02-03T07:02:14.655Z,82.93
2019-02-03T07:04:45.822Z,87.47
2019-02-03T07:07:16.291Z,81.73
2019-02-03T07:09:47.120Z,82.67
2019-02-03T07:12:17.604Z,89.77
2019-02-03T07:14:48.318Z,89.20
2019-02-03T07:17:19.132Z,83.90
2019-02-03T07:19:50.037Z,91.07
2019-02-03T07:22:20.473Z,87.97
2019-02-03T07:24:50.970Z,89.43
2019-02-03T07:27:21.414Z,94.77
2019-02-03T07:29:52.166Z,93.07
2019-02-03T07:32:22.629Z,91.83
2019-02-03T07:34:53.121Z,93.03
2019-02-03T07:37:24.004Z,94.83
2019-02-03T07:39:54.428Z,93.43
2019-02-03T07:42:25.166Z,84.20
2019-02-03T07:44:55.742Z,95.97
2019-02-03T07:47:26.914Z,91.03
2019-02-03T07:49:57.404Z,91.37
2019-02-03T07:52:28.182Z,96.50
2019-02-03T07:54:58.624Z,96.87
2019-02-03T07:57:29.094Z,97.83
2019-02-03T07:59:59.882Z,85.40
2019-02-03T08:02:30.660Z,91.30
2019-02-03T08:05:01.124Z,85.30
2019-02-03T08:07:31.851Z,84.13
2019-02-03T08:10:02.687Z,84.00
2019-02-03T08:12:33.999Z,81.47
2019-02-03T08:15:06.503Z,76.17
2019-02-03T08:17:36.942Z,77.37
2019-02-03T08:20:10.372Z,80.87
2019-02-03T08:22:40.836Z,76.47
2019-02-03T08:25:12.948Z,81.53
2019-02-03T08:27:43.443Z,76.17
2019-02-03T08:30:16.702Z,70.47
2019-02-03T08:32:47.138Z,75.60
2019-02-03T08:35:19.890Z,70.17
2019-02-03T08:37:50.142Z,70.37
2019-02-03T08:40:21.173Z,66.20
2019-02-03T08:42:51.976Z,66.67
2019-02-03T08:45:22.660Z,67.47
2019-02-03T08:47:53.103Z,69.63
2019-02-03T08:50:23.646Z,66.87
2019-02-03T08:52:54.232Z,65.47
2019-02-03T08:55:24.671Z,60.33
2019-02-03T08:57:57.717Z,59.73
2019-02-03T09:00:28.753Z,55.27
2019-02-03T09:02:59.288Z,54.17
2019-02-03T09:05:30.555Z,57.40
2019-02-03T09:08:01.020Z,62.40
2019-02-03T09:10:31.461Z,58.40
2019-02-03T09:13:01.951Z,61.80
2019-02-03T09:15:32.397Z,57.20
2019-02-03T09:18:03.569Z,53.93
2019-02-03T09:20:34.628Z,57.67
2019-02-03T09:23:06.765Z,54.70
2019-02-03T09:25:37.565Z,55.70
2019-02-03T09:28:08.881Z,59.70
2019-02-03T09:30:40.223Z,63.60
2019-02-03T09:33:11.691Z,58.50
2019-02-03T09:35:42.141Z,54.00
2019-02-03T09:38:13.698Z,58.53
2019-02-03T09:40:44.154Z,54.80
2019-02-03T09:43:15.007Z,60.00
2019-02-03T09:45:45.461Z,55.87
2019-02-03T09:48:16.300Z,53.83
2019-02-03T09:50:46.790Z,54.33
2019-02-03T09:53:17.234Z,61.67
2019-02-03T09:55:48.046Z,50.90
2019-02-03T09:58:18.516Z,51.30
2019-02-03T10:00:48.960Z,57.17
2019-02-03T10:03:19.442Z,58.70
2019-02-03T10:05:49.880Z,52.93
2019-02-03T10:08:20.821Z,52.63
2019-02-03T10:10:51.370Z,58.23
2019-02-03T10:13:21.821Z,54.87
2019-02-03T10:15:52.763Z,51.67
2019-02-03T10:18:23.636Z,53.30
2019-02-03T10:20:54.139Z,51.40
2019-02-03T10:23:24.588Z,47.50
2019-02-03T10:25:55.533Z,48.70
2019-02-03T10:28:26.090Z,42.83
2019-02-03T10:30:56.646Z,44.70
2019-02-03T10:33:27.494Z,47.03
2019-02-03T10:35:58.325Z,46.83
2019-02-03T10:38:29.540Z,48.80
2019-02-03T10:41:00.335Z,51.70
2019-02-03T10:43:30.789Z,46.77
2019-02-03T10:46:01.238Z,45.23
2019-02-03T10:48:32.222Z,50.13
2019-02-03T10:51:03.146Z,47.23
2019-02-03T10:53:33.571Z,47.87
2019-02-03T10:56:05.263Z,50.53
2019-02-03T10:58:36.104Z,47.40
2019-02-03T11:01:06.925Z,43.30
2019-02-03T11:03:37.442Z,43.73
2019-02-03T11:06:08.934Z,44.90
2019-02-03T11:08:39.565Z,42.47
2019-02-03T11:11:10.058Z,40.80
2019-02-03T11:13:41.177Z,39.17
2019-02-03T11:16:11.645Z,41.07
2019-02-03T11:18:42.918Z,37.23
2019-02-03T11:21:13.364Z,37.70
2019-02-03T11:23:43.816Z,39.60
2019-02-03T11:26:14.399Z,34.40
2019-02-03T11:28:44.934Z,34.17
2019-02-03T11:31:15.386Z,32.93
2019-02-03T11:33:45.890Z,32.97
2019-02-03T11:36:16.360Z,35.87
2019-02-03T11:38:47.165Z,34.07
2019-02-03T11:41:17.663Z,32.43
2019-02-03T11:43:48.102Z,35.73
2019-02-03T11:46:18.543Z,34.80
2019-02-03T11:48:49.053Z,34.93
2019-02-03T11:51:19.493Z,32.10
2019-02-03T11:53:49.951Z,31.83
2019-02-03T11:56:21.014Z,33.80
2019-02-03T11:58:51.462Z,35.83
2019-02-03T12:01:22.309Z,37.83
2019-02-03T12:03:52.798Z,37.40
2019-02-03T12:06:23.249Z,31.50
2019-02-03T12:08:53.690Z,37.07
2019-02-03T12:11:24.182Z,34.30
2019-02-03T12:13:55.141Z,35.00
2019-02-03T12:16:25.962Z,34.77
2019-02-03T12:18:57.363Z,37.97
2019-02-03T12:21:30.029Z,34.20
2019-02-03T12:24:00.341Z,39.87
2019-02-03T12:26:31.265Z,39.07
2019-02-03T12:29:01.709Z,39.00
2019-02-03T12:31:32.705Z,39.33
2019-02-03T12:34:03.197Z,39.77
2019-02-03T12:36:34.649Z,38.03
2019-02-03T12:39:08.494Z,36.67
2019-02-03T12:41:39.848Z,37.33
2019-02-03T12:44:10.456Z,34.90
2019-02-03T12:46:41.370Z,36.47
2019-02-03T12:49:12.214Z,33.17
2019-02-03T12:51:43.535Z,36.17
2019-02-03T12:54:14.450Z,35.27
2019-02-03T12:56:44.898Z,30.87
2019-02-03T12:59:15.345Z,35.60
2019-02-03T13:01:46.222Z,32.53
2019-02-03T13:04:16.708Z,27.90
2019-02-03T13:06:47.161Z,29.63
2019-02-03T13:09:19.966Z,31.20
2019-02-03T13:11:50.452Z,29.00
2019-02-03T13:14:21.318Z,29.10
2019-02-03T13:16:51.822Z,26.67
2019-02-03T13:19:23.584Z,28.10
2019-02-03T13:21:54.808Z,24.73
2019-02-03T13:24:25.317Z,25.13
2019-02-03T13:26:56.163Z,26.03
2019-02-03T13:29:26.891Z,27.67
2019-02-03T13:32:10.165Z,25.07
2019-02-03T13:34:30.439Z,24.90
2019-02-03T13:37:01.358Z,22.43
2019-02-03T13:39:31.877Z,24.73
2019-02-03T13:42:02.329Z,20.43
2019-02-03T13:44:33.539Z,22.27
2019-02-03T13:47:04.338Z,19.57
2019-02-03T13:49:35.129Z,18.37
2019-02-03T13:52:06.159Z,19.53
2019-02-03T13:54:37.139Z,22.43
2019-02-03T13:57:07.612Z,22.30
2019-02-03T13:59:38.074Z,21.57
2019-02-03T14:02:09.381Z,20.77
2019-02-03T14:04:39.842Z,21.30
2019-02-03T14:07:12.474Z,24.77
2019-02-03T14:09:42.960Z,22.93
2019-02-03T14:12:13.459Z,21.43
2019-02-03T14:14:43.918Z,22.50
2019-02-03T14:17:14.422Z,20.60
2019-02-03T14:19:44.878Z,22.27
2019-02-03T14:22:16.405Z,24.63
2019-02-03T14:24:49.647Z,18.47
2019-02-03T14:27:20.118Z,18.47
2019-02-03T14:29:50.588Z,18.40
2019-02-03T14:32:21.478Z,16.77
2019-02-03T14:34:51.928Z,14.70
2019-02-03T14:37:22.689Z,15.63
2019-02-03T14:39:53.201Z,12.40
2019-02-03T14:42:24.372Z,15.30
2019-02-03T14:44:55.924Z,14.90
2019-02-03T14:47:26.865Z,13.60
2019-02-03T14:49:58.016Z,13.33
2019-02-03T14:52:28.634Z,13.97
2019-02-03T14:54:59.505Z,13.97
2019-02-03T14:57:30.628Z,13.27
2019-02-03T15:00:01.086Z,21.73
2019-02-03T15:02:31.607Z,27.37
2019-02-03T15:05:02.044Z,13.37
2019-02-03T15:07:37.660Z,18.27
2019-02-03T15:10:05.902Z,12.63
2019-02-03T15:12:36.350Z,13.53
2019-02-03T15:15:09.262Z,12.03
2019-02-03T15:17:40.206Z,15.30
2019-02-03T15:20:13.308Z,12.67
2019-02-03T15:22:43.765Z,13.13
2019-02-03T15:25:15.237Z,11.37
2019-02-03T15:27:46.026Z,11.80
2019-02-03T15:30:22.665Z,11.33
2019-02-03T15:32:53.117Z,10.40
2019-02-03T15:35:24.007Z,11.00
2019-02-03T15:37:54.493Z,10.60
2019-02-03T15:40:24.959Z,8.73
2019-02-03T15:42:55.537Z,12.50
2019-02-03T15:45:26.211Z,11.03
2019-02-03T15:47:56.688Z,11.57
2019-02-03T15:50:28.856Z,10.67
2019-02-03T15:52:59.780Z,12.80
2019-02-03T15:55:31.580Z,11.57
2019-02-03T15:58:02.536Z,12.77
2019-02-03T16:00:35.376Z,10.77
2019-02-03T16:03:08.700Z,11.90
2019-02-03T16:05:39.977Z,14.33
2019-02-03T16:08:11.469Z,14.23
2019-02-03T16:10:42.978Z,11.67
2019-02-03T16:13:15.220Z,17.37
2019-02-03T16:15:46.175Z,12.60
2019-02-03T16:18:17.527Z,12.93
2019-02-03T16:20:48.150Z,12.13
2019-02-03T16:23:19.415Z,10.33
2019-02-03T16:25:49.865Z,16.10
2019-02-03T16:28:20.308Z,13.47
2019-02-03T16:30:51.577Z,10.97
2019-02-03T16:33:22.217Z,12.73
2019-02-03T16:35:52.659Z,12.00
2019-02-03T16:38:24.111Z,10.73
2019-02-03T16:40:55.605Z,13.30
2019-02-03T16:43:26.448Z,10.20
2019-02-03T16:45:59.271Z,11.93
2019-02-03T16:48:30.389Z,12.87
2019-02-03T16:51:00.854Z,11.77
2019-02-03T16:53:32.051Z,10.73
2019-02-03T16:56:02.998Z,15.63
2019-02-03T16:58:33.755Z,11.13
2019-02-03T17:01:05.159Z,14.43
2019-02-03T17:03:35.659Z,15.67
2019-02-03T17:06:06.449Z,10.23
2019-02-03T17:08:37.473Z,14.50
2019-02-03T17:11:08.737Z,16.27
2019-02-03T17:13:39.161Z,12.47
2019-02-03T17:16:10.013Z,12.17
2019-02-03T17:18:40.470Z,11.67
2019-02-03T17:21:11.589Z,11.23
2019-02-03T17:23:43.244Z,13.20
2019-02-03T17:26:13.994Z,17.13
2019-02-03T17:28:44.448Z,13.07
2019-02-03T17:31:14.945Z,15.27
2019-02-03T17:33:46.655Z,25.90
2019-02-03T17:36:17.700Z,26.73
2019-02-03T17:38:48.589Z,20.07
2019-02-03T17:41:19.042Z,13.00
2019-02-03T17:43:49.647Z,15.47
2019-02-03T17:46:20.135Z,13.93
2019-02-03T17:48:50.999Z,14.03
2019-02-03T17:51:23.541Z,13.60
2019-02-03T17:53:54.402Z,17.03
2019-02-03T17:56:25.169Z,12.43
2019-02-03T17:58:57.238Z,12.67
2019-02-03T18:01:27.812Z,15.20
2019-02-03T18:03:58.248Z,15.43
2019-02-03T18:06:28.699Z,10.93
2019-02-03T18:08:59.254Z,17.23
2019-02-03T18:11:29.818Z,12.33
2019-02-03T18:14:00.545Z,13.50
2019-02-03T18:16:31.025Z,10.27
2019-02-03T18:19:02.260Z,13.67
2019-02-03T18:21:32.792Z,9.60
2019-02-03T18:24:03.619Z,12.73
2019-02-03T18:26:37.542Z,10.77
2019-02-03T18:29:08.338Z,14.90
2019-02-03T18:31:39.896Z,10.40
2019-02-03T18:34:10.949Z,10.67
2019-02-03T18:36:41.394Z,11.83
2019-02-03T18:39:11.949Z,10.13
2019-02-03T18:41:42.741Z,8.80
2019-02-03T18:44:13.313Z,11.10
2019-02-03T18:46:43.841Z,10.10
2019-02-03T18:49:14.303Z,11.20
2019-02-03T18:51:45.121Z,9.63
2019-02-03T18:54:15.983Z,11.23
2019-02-03T18:56:47.122Z,13.90
2019-02-03T18:59:17.585Z,12.43
2019-02-03T19:01:48.105Z,13.10
2019-02-03T19:04:18.823Z,11.67
2019-02-03T19:06:49.629Z,11.10
2019-02-03T19:09:20.145Z,11.97
2019-02-03T19:11:51.030Z,9.50
2019-02-03T19:14:22.976Z,10.20
2019-02-03T19:16:54.466Z,7.87
2019-02-03T19:19:25.186Z,11.70
2019-02-03T19:21:55.633Z,12.40
2019-02-03T19:24:26.492Z,9.83
2019-02-03T19:26:57.640Z,9.73
2019-02-03T19:29:28.449Z,8.50
2019-02-03T19:31:58.958Z,10.30
2019-02-03T19:34:29.746Z,11.57
2019-02-03T19:37:05.554Z,12.93
2019-02-03T19:39:32.736Z,13.57
2019-02-03T19:42:03.472Z,9.33
2019-02-03T19:44:34.329Z,7.90
2019-02-03T19:47:05.417Z,10.50
2019-02-03T19:49:45.993Z,8.13
2019-02-03T19:52:08.587Z,12.10
2019-02-03T19:54:40.042Z,10.67
2019-02-03T19:57:10.634Z,12.10
2019-02-03T19:59:46.848Z,11.03
2019-02-03T20:02:13.317Z,9.53
2019-02-03T20:04:50.932Z,7.97
2019-02-03T20:07:21.744Z,9.63
2019-02-03T20:09:52.565Z,11.17
2019-02-03T20:12:24.260Z,9.67
2019-02-03T20:14:54.914Z,13.13
2019-02-03T20:17:25.861Z,9.43
2019-02-03T20:19:56.726Z,13.40
2019-02-03T20:22:27.968Z,9.40
2019-02-03T20:24:58.453Z,12.17
2019-02-03T20:27:28.956Z,11.57
2019-02-03T20:29:59.422Z,11.50
2019-02-03T20:32:29.933Z,10.57
2019-02-03T20:35:00.971Z,12.23
2019-02-03T20:37:31.915Z,10.07
2019-02-03T20:40:02.982Z,13.60
2019-02-03T20:42:33.550Z,10.83
2019-02-03T20:45:04.947Z,12.17
2019-02-03T20:47:38.092Z,14.10
2019-02-03T20:50:11.326Z,14.03
2019-02-03T20:52:42.164Z,15.87
2019-02-03T20:55:13.351Z,15.70
2019-02-03T20:57:44.292Z,9.30
2019-02-03T21:00:20.453Z,12.87
2019-02-03T21:02:51.203Z,10.60
2019-02-03T21:05:21.742Z,12.10
2019-02-03T21:07:52.665Z,13.87
2019-02-03T21:10:23.408Z,9.00
2019-02-03T21:12:54.272Z,10.93
2019-02-03T21:15:33.538Z,14.97
2019-02-03T21:17:58.361Z,11.03
2019-02-03T21:20:31.045Z,14.77
2019-02-03T21:23:02.000Z,10.53
2019-02-03T21:25:32.447Z,14.10
2019-02-03T21:28:03.023Z,13.03
2019-02-03T21:30:35.975Z,16.67
2019-02-03T21:33:07.433Z,13.80
2019-02-03T21:35:37.868Z,14.87
2019-02-03T21:38:09.988Z,10.20
2019-02-03T21:40:40.452Z,8.17
2019-02-03T21:43:11.393Z,11.67
2019-02-03T21:45:45.045Z,13.67
2019-02-03T21:48:14.362Z,9.30
2019-02-03T21:50:44.868Z,11.07
2019-02-03T21:53:15.366Z,10.33
2019-02-03T21:55:46.204Z,9.27
2019-02-03T21:58:16.702Z,10.90
2019-02-03T22:00:47.138Z,12.23
2019-02-03T22:03:17.904Z,9.53
2019-02-03T22:05:48.382Z,11.90
2019-02-03T22:08:19.584Z,9.90
2019-02-03T22:10:50.074Z,14.00
2019-02-03T22:13:20.542Z,11.77
2019-02-03T22:15:55.910Z,9.60
2019-02-03T22:18:23.328Z,7.50
2019-02-03T22:20:53.746Z,9.83
2019-02-03T22:23:24.229Z,9.43
2019-02-03T22:25:55.043Z,8.70
2019-02-03T22:28:25.487Z,10.73
2019-02-03T22:30:55.959Z,10.50
2019-02-03T22:33:26.394Z,9.30
2019-02-03T22:35:57.221Z,10.23
2019-02-03T22:38:27.657Z,10.07
2019-02-03T22:40:58.101Z,7.70
2019-02-03T22:43:29.493Z,10.57
2019-02-03T22:46:06.863Z,9.37
2019-02-03T22:48:32.114Z,12.67
2019-02-03T22:51:03.346Z,11.30
2019-02-03T22:53:34.106Z,12.23
2019-02-03T22:56:04.784Z,10.97
2019-02-03T22:58:35.648Z,10.53
2019-02-03T23:01:19.835Z,8.67
2019-02-03T23:03:59.009Z,12.47
2019-02-03T23:06:31.161Z,12.43
2019-02-03T23:09:05.360Z,15.27
2019-02-03T23:11:35.996Z,9.53
2019-02-03T23:14:06.880Z,11.47
2019-02-03T23:16:37.319Z,12.93
2019-02-03T23:19:07.785Z,11.40
2019-02-03T23:21:38.227Z,12.03
2019-02-03T23:24:09.214Z,11.07
2019-02-03T23:26:39.817Z,12.73
2019-02-03T23:29:10.527Z,13.87
2019-02-03T23:31:41.341Z,11.90
2019-02-03T23:34:12.062Z,16.63
2019-02-03T23:36:42.895Z,12.43
2019-02-03T23:39:14.407Z,9.50
2019-02-03T23:41:45.007Z,11.87
2019-02-03T23:44:15.529Z,12.33
2019-02-03T23:46:46.342Z,12.13
2019-02-03T23:49:17.906Z,11.93
2019-02-03T23:51:48.340Z,10.63
2019-02-03T23:54:18.786Z,10.67
2019-02-03T23:56:49.610Z,16.07
2019-02-03T23:59:20.432Z,15.93
